sensor_id;sensor_type;location;lat;lon;timestamp;P1;durP1;ratioP1;P2;durP2;ratioP2
14292;SDS011;62290;59.420;17.842;2024-03-07T00:00:05;9.60;;;3.78;;
14292;SDS011;62290;59.420;17.842;2024-03-07T00:02:42;6.20;;;3.05;;
14292;SDS011;62290;59.420;17.842;2024-03-07T00:05:10;8.85;;;2.47;;
14292;SDS011;62290;59.420;17.842;2024-03-07T00:07:39;10.80;;;3.13;;
14292;SDS011;62290;59.420;17.842;2024-03-07T00:10:09;7.88;;;2.60;;
14292;SDS011;62290;59.420;17.842;2024-03-07T00:12:39;8.57;;;2.67;;
14292;SDS011;62290;59.420;17.842;2024-03-07T00:15:08;6.85;;;3.08;;
14292;SDS011;62290;59.420;17.842;2024-03-07T00:17:38;6.90;;;2.72;;
14292;SDS011;62290;59.420;17.842;2024-03-07T00:20:06;9.20;;;2.53;;
14292;SDS011;62290;59.420;17.842;2024-03-07T00:22:40;7.38;;;2.30;;
14292;SDS011;62290;59.420;17.842;2024-03-07T00:25:10;6.95;;;3.13;;
14292;SDS011;62290;59.420;17.842;2024-03-07T00:27:41;6.22;;;3.22;;
14292;SDS011;62290;59.420;17.842;2024-03-07T00:30:12;8.10;;;2.78;;
14292;SDS011;62290;59.420;17.842;2024-03-07T00:32:45;10.38;;;3.10;;
14292;SDS011;62290;59.420;17.842;2024-03-07T00:35:14;9.02;;;3.33;;
14292;SDS011;62290;59.420;17.842;2024-03-07T00:37:42;10.43;;;3.50;;
14292;SDS011;62290;59.420;17.842;2024-03-07T00:40:12;7.05;;;2.70;;
14292;SDS011;62290;59.420;17.842;2024-03-07T00:42:40;10.65;;;3.25;;
14292;SDS011;62290;59.420;17.842;2024-03-07T00:45:08;8.27;;;3.10;;
14292;SDS011;62290;59.420;17.842;2024-03-07T00:47:36;11.13;;;2.90;;
14292;SDS011;62290;59.420;17.842;2024-03-07T00:50:05;8.10;;;3.53;;
14292;SDS011;62290;59.420;17.842;2024-03-07T00:52:35;15.57;;;3.60;;
14292;SDS011;62290;59.420;17.842;2024-03-07T00:55:04;15.05;;;3.25;;
14292;SDS011;62290;59.420;17.842;2024-03-07T00:57:36;12.48;;;3.42;;
14292;SDS011;62290;59.420;17.842;2024-03-07T01:00:05;8.45;;;3.08;;
14292;SDS011;62290;59.420;17.842;2024-03-07T01:02:38;9.40;;;3.03;;
14292;SDS011;62290;59.420;17.842;2024-03-07T01:05:10;16.13;;;3.25;;
14292;SDS011;62290;59.420;17.842;2024-03-07T01:07:40;12.57;;;3.72;;
14292;SDS011;62290;59.420;17.842;2024-03-07T01:10:09;11.93;;;3.45;;
14292;SDS011;62290;59.420;17.842;2024-03-07T01:12:39;7.70;;;3.15;;
14292;SDS011;62290;59.420;17.842;2024-03-07T01:15:07;12.73;;;3.63;;
14292;SDS011;62290;59.420;17.842;2024-03-07T01:17:38;9.38;;;3.17;;
14292;SDS011;62290;59.420;17.842;2024-03-07T01:20:06;8.65;;;3.50;;
14292;SDS011;62290;59.420;17.842;2024-03-07T01:22:35;7.70;;;3.22;;
14292;SDS011;62290;59.420;17.842;2024-03-07T01:25:04;11.00;;;3.78;;
14292;SDS011;62290;59.420;17.842;2024-03-07T01:27:33;6.75;;;3.00;;
14292;SDS011;62290;59.420;17.842;2024-03-07T01:30:03;15.40;;;5.03;;
14292;SDS011;62290;59.420;17.842;2024-03-07T01:32:34;10.50;;;3.70;;
14292;SDS011;62290;59.420;17.842;2024-03-07T01:35:02;7.50;;;2.92;;
14292;SDS011;62290;59.420;17.842;2024-03-07T01:37:33;15.82;;;3.90;;
14292;SDS011;62290;59.420;17.842;2024-03-07T01:40:01;15.18;;;3.70;;
14292;SDS011;62290;59.420;17.842;2024-03-07T01:42:29;13.93;;;3.33;;
14292;SDS011;62290;59.420;17.842;2024-03-07T01:44:57;9.30;;;3.20;;
14292;SDS011;62290;59.420;17.842;2024-03-07T01:47:27;5.85;;;3.42;;
14292;SDS011;62290;59.420;17.842;2024-03-07T01:49:55;10.95;;;4.40;;
14292;SDS011;62290;59.420;17.842;2024-03-07T01:52:23;12.38;;;3.50;;
14292;SDS011;62290;59.420;17.842;2024-03-07T01:54:51;5.65;;;2.90;;
14292;SDS011;62290;59.420;17.842;2024-03-07T01:57:19;8.48;;;3.47;;
14292;SDS011;62290;59.420;17.842;2024-03-07T01:59:50;11.73;;;3.42;;
14292;SDS011;62290;59.420;17.842;2024-03-07T02:02:19;9.50;;;3.55;;
14292;SDS011;62290;59.420;17.842;2024-03-07T02:04:48;6.30;;;3.03;;
14292;SDS011;62290;59.420;17.842;2024-03-07T02:07:16;13.93;;;3.20;;
14292;SDS011;62290;59.420;17.842;2024-03-07T02:09:44;8.45;;;3.03;;
14292;SDS011;62290;59.420;17.842;2024-03-07T02:12:12;12.10;;;3.17;;
14292;SDS011;62290;59.420;17.842;2024-03-07T02:14:40;8.93;;;3.25;;
14292;SDS011;62290;59.420;17.842;2024-03-07T02:17:08;5.75;;;2.85;;
14292;SDS011;62290;59.420;17.842;2024-03-07T02:19:36;10.38;;;3.10;;
14292;SDS011;62290;59.420;17.842;2024-03-07T02:22:05;10.10;;;3.33;;
14292;SDS011;62290;59.420;17.842;2024-03-07T02:24:33;9.15;;;3.30;;
14292;SDS011;62290;59.420;17.842;2024-03-07T02:27:01;9.43;;;3.10;;
14292;SDS011;62290;59.420;17.842;2024-03-07T02:29:29;10.75;;;3.03;;
14292;SDS011;62290;59.420;17.842;2024-03-07T02:31:58;8.25;;;3.40;;
14292;SDS011;62290;59.420;17.842;2024-03-07T02:34:26;9.20;;;3.38;;
14292;SDS011;62290;59.420;17.842;2024-03-07T02:36:53;10.63;;;3.30;;
14292;SDS011;62290;59.420;17.842;2024-03-07T02:39:23;13.13;;;3.60;;
14292;SDS011;62290;59.420;17.842;2024-03-07T02:41:51;8.05;;;3.58;;
14292;SDS011;62290;59.420;17.842;2024-03-07T02:44:19;13.23;;;3.63;;
14292;SDS011;62290;59.420;17.842;2024-03-07T02:46:47;9.60;;;2.63;;
14292;SDS011;62290;59.420;17.842;2024-03-07T02:49:15;7.35;;;3.05;;
14292;SDS011;62290;59.420;17.842;2024-03-07T02:51:43;7.68;;;3.38;;
14292;SDS011;62290;59.420;17.842;2024-03-07T02:54:11;4.18;;;2.40;;
14292;SDS011;62290;59.420;17.842;2024-03-07T02:56:41;7.70;;;3.47;;
14292;SDS011;62290;59.420;17.842;2024-03-07T02:59:09;7.07;;;3.15;;
14292;SDS011;62290;59.420;17.842;2024-03-07T03:01:37;11.95;;;3.00;;
14292;SDS011;62290;59.420;17.842;2024-03-07T03:04:06;14.00;;;3.30;;
14292;SDS011;62290;59.420;17.842;2024-03-07T03:06:34;7.13;;;3.25;;
14292;SDS011;62290;59.420;17.842;2024-03-07T03:09:02;9.15;;;3.17;;
14292;SDS011;62290;59.420;17.842;2024-03-07T03:11:31;5.47;;;3.08;;
14292;SDS011;62290;59.420;17.842;2024-03-07T03:14:01;8.23;;;3.28;;
14292;SDS011;62290;59.420;17.842;2024-03-07T03:16:30;8.05;;;3.30;;
14292;SDS011;62290;59.420;17.842;2024-03-07T03:19:13;8.43;;;3.10;;
14292;SDS011;62290;59.420;17.842;2024-03-07T03:21:41;7.00;;;3.03;;
14292;SDS011;62290;59.420;17.842;2024-03-07T03:24:10;11.45;;;3.15;;
14292;SDS011;62290;59.420;17.842;2024-03-07T03:26:38;6.38;;;3.25;;
14292;SDS011;62290;59.420;17.842;2024-03-07T03:29:10;8.55;;;3.08;;
14292;SDS011;62290;59.420;17.842;2024-03-07T03:31:40;7.85;;;2.95;;
14292;SDS011;62290;59.420;17.842;2024-03-07T03:34:08;11.95;;;3.08;;
14292;SDS011;62290;59.420;17.842;2024-03-07T03:36:36;6.80;;;2.80;;
14292;SDS011;62290;59.420;17.842;2024-03-07T03:39:05;8.15;;;2.38;;
14292;SDS011;62290;59.420;17.842;2024-03-07T03:41:34;5.95;;;2.10;;
14292;SDS011;62290;59.420;17.842;2024-03-07T03:44:02;6.82;;;2.70;;
14292;SDS011;62290;59.420;17.842;2024-03-07T03:46:31;5.10;;;2.60;;
14292;SDS011;62290;59.420;17.842;2024-03-07T03:48:59;4.82;;;2.50;;
14292;SDS011;62290;59.420;17.842;2024-03-07T03:51:27;12.55;;;3.20;;
14292;SDS011;62290;59.420;17.842;2024-03-07T03:53:56;4.95;;;2.85;;
14292;SDS011;62290;59.420;17.842;2024-03-07T03:56:24;3.55;;;2.28;;
14292;SDS011;62290;59.420;17.842;2024-03-07T03:58:53;5.63;;;2.40;;
14292;SDS011;62290;59.420;17.842;2024-03-07T04:01:21;5.72;;;2.20;;
14292;SDS011;62290;59.420;17.842;2024-03-07T04:03:51;3.33;;;1.95;;
14292;SDS011;62290;59.420;17.842;2024-03-07T04:06:19;4.88;;;2.65;;
14292;SDS011;62290;59.420;17.842;2024-03-07T04:08:47;4.88;;;2.40;;
14292;SDS011;62290;59.420;17.842;2024-03-07T04:11:15;3.38;;;2.25;;
14292;SDS011;62290;59.420;17.842;2024-03-07T04:13:44;3.75;;;2.10;;
14292;SDS011;62290;59.420;17.842;2024-03-07T04:16:13;7.05;;;2.45;;
14292;SDS011;62290;59.420;17.842;2024-03-07T04:18:43;10.45;;;2.20;;
14292;SDS011;62290;59.420;17.842;2024-03-07T04:21:12;4.72;;;2.13;;
14292;SDS011;62290;59.420;17.842;2024-03-07T04:23:40;5.10;;;2.15;;
14292;SDS011;62290;59.420;17.842;2024-03-07T04:26:09;5.95;;;2.28;;
14292;SDS011;62290;59.420;17.842;2024-03-07T04:28:36;3.92;;;2.30;;
14292;SDS011;62290;59.420;17.842;2024-03-07T04:31:03;2.50;;;2.08;;
14292;SDS011;62290;59.420;17.842;2024-03-07T04:33:31;2.05;;;1.75;;
14292;SDS011;62290;59.420;17.842;2024-03-07T04:35:59;4.93;;;2.20;;
14292;SDS011;62290;59.420;17.842;2024-03-07T04:38:31;7.95;;;3.03;;
14292;SDS011;62290;59.420;17.842;2024-03-07T04:40:59;4.72;;;2.50;;
14292;SDS011;62290;59.420;17.842;2024-03-07T04:43:27;4.03;;;1.88;;
14292;SDS011;62290;59.420;17.842;2024-03-07T04:45:55;3.03;;;1.92;;
14292;SDS011;62290;59.420;17.842;2024-03-07T04:48:23;4.90;;;2.65;;
14292;SDS011;62290;59.420;17.842;2024-03-07T04:50:51;3.50;;;1.85;;
14292;SDS011;62290;59.420;17.842;2024-03-07T04:53:19;3.80;;;2.50;;
14292;SDS011;62290;59.420;17.842;2024-03-07T04:55:48;4.05;;;2.50;;
14292;SDS011;62290;59.420;17.842;2024-03-07T04:58:17;8.70;;;2.33;;
14292;SDS011;62290;59.420;17.842;2024-03-07T05:00:45;4.00;;;2.30;;
14292;SDS011;62290;59.420;17.842;2024-03-07T05:03:16;5.38;;;2.10;;
14292;SDS011;62290;59.420;17.842;2024-03-07T05:05:45;3.10;;;2.15;;
14292;SDS011;62290;59.420;17.842;2024-03-07T05:08:14;6.75;;;2.78;;
14292;SDS011;62290;59.420;17.842;2024-03-07T05:10:43;3.75;;;2.20;;
14292;SDS011;62290;59.420;17.842;2024-03-07T05:13:12;6.05;;;2.25;;
14292;SDS011;62290;59.420;17.842;2024-03-07T05:15:41;6.60;;;2.78;;
14292;SDS011;62290;59.420;17.842;2024-03-07T05:18:09;6.45;;;2.38;;
14292;SDS011;62290;59.420;17.842;2024-03-07T05:20:39;6.93;;;2.70;;
14292;SDS011;62290;59.420;17.842;2024-03-07T05:23:07;6.43;;;2.30;;
14292;SDS011;62290;59.420;17.842;2024-03-07T05:25:38;4.70;;;2.45;;
14292;SDS011;62290;59.420;17.842;2024-03-07T05:28:06;3.95;;;2.40;;
14292;SDS011;62290;59.420;17.842;2024-03-07T05:30:36;13.88;;;2.92;;
14292;SDS011;62290;59.420;17.842;2024-03-07T05:33:04;9.93;;;2.60;;
14292;SDS011;62290;59.420;17.842;2024-03-07T05:35:33;7.47;;;2.30;;
14292;SDS011;62290;59.420;17.842;2024-03-07T05:38:01;8.00;;;2.75;;
14292;SDS011;62290;59.420;17.842;2024-03-07T05:40:31;6.50;;;2.78;;
14292;SDS011;62290;59.420;17.842;2024-03-07T05:42:59;11.13;;;2.60;;
14292;SDS011;62290;59.420;17.842;2024-03-07T05:45:27;10.80;;;2.50;;
14292;SDS011;62290;59.420;17.842;2024-03-07T05:47:57;10.45;;;3.42;;
14292;SDS011;62290;59.420;17.842;2024-03-07T05:50:25;8.63;;;2.83;;
14292;SDS011;62290;59.420;17.842;2024-03-07T05:52:53;13.02;;;3.00;;
14292;SDS011;62290;59.420;17.842;2024-03-07T05:55:22;9.18;;;3.00;;
14292;SDS011;62290;59.420;17.842;2024-03-07T05:57:50;14.60;;;3.35;;
14292;SDS011;62290;59.420;17.842;2024-03-07T06:00:18;8.88;;;2.83;;
14292;SDS011;62290;59.420;17.842;2024-03-07T06:02:54;8.88;;;2.38;;
14292;SDS011;62290;59.420;17.842;2024-03-07T06:05:24;18.10;;;2.78;;
14292;SDS011;62290;59.420;17.842;2024-03-07T06:07:53;11.93;;;2.72;;
14292;SDS011;62290;59.420;17.842;2024-03-07T06:10:23;20.55;;;4.10;;
14292;SDS011;62290;59.420;17.842;2024-03-07T06:12:51;10.57;;;3.10;;
14292;SDS011;62290;59.420;17.842;2024-03-07T06:15:35;13.55;;;3.20;;
14292;SDS011;62290;59.420;17.842;2024-03-07T06:18:06;22.02;;;3.92;;
14292;SDS011;62290;59.420;17.842;2024-03-07T06:20:34;21.08;;;4.20;;
14292;SDS011;62290;59.420;17.842;2024-03-07T06:23:03;23.08;;;3.67;;
14292;SDS011;62290;59.420;17.842;2024-03-07T06:25:31;14.88;;;2.85;;
14292;SDS011;62290;59.420;17.842;2024-03-07T06:28:04;24.65;;;3.30;;
14292;SDS011;62290;59.420;17.842;2024-03-07T06:30:38;17.13;;;3.63;;
14292;SDS011;62290;59.420;17.842;2024-03-07T06:33:08;13.25;;;3.08;;
14292;SDS011;62290;59.420;17.842;2024-03-07T06:35:37;14.35;;;4.07;;
14292;SDS011;62290;59.420;17.842;2024-03-07T06:38:06;10.50;;;2.15;;
14292;SDS011;62290;59.420;17.842;2024-03-07T06:40:36;11.38;;;3.33;;
14292;SDS011;62290;59.420;17.842;2024-03-07T06:43:04;11.88;;;2.50;;
14292;SDS011;62290;59.420;17.842;2024-03-07T06:45:33;11.65;;;2.60;;
14292;SDS011;62290;59.420;17.842;2024-03-07T06:48:02;6.68;;;2.72;;
14292;SDS011;62290;59.420;17.842;2024-03-07T06:50:32;10.10;;;2.63;;
14292;SDS011;62290;59.420;17.842;2024-03-07T06:53:04;7.35;;;2.35;;
14292;SDS011;62290;59.420;17.842;2024-03-07T06:55:35;7.45;;;2.10;;
14292;SDS011;62290;59.420;17.842;2024-03-07T06:58:03;3.80;;;1.70;;
14292;SDS011;62290;59.420;17.842;2024-03-07T07:00:32;7.53;;;2.10;;
14292;SDS011;62290;59.420;17.842;2024-03-07T07:03:04;9.85;;;2.13;;
14292;SDS011;62290;59.420;17.842;2024-03-07T07:05:34;4.47;;;2.00;;
14292;SDS011;62290;59.420;17.842;2024-03-07T07:08:03;5.80;;;2.20;;
14292;SDS011;62290;59.420;17.842;2024-03-07T07:10:33;4.53;;;1.77;;
14292;SDS011;62290;59.420;17.842;2024-03-07T07:13:02;2.22;;;1.58;;
14292;SDS011;62290;59.420;17.842;2024-03-07T07:15:31;3.75;;;1.67;;
14292;SDS011;62290;59.420;17.842;2024-03-07T07:18:01;4.80;;;2.00;;
14292;SDS011;62290;59.420;17.842;2024-03-07T07:20:29;2.90;;;1.80;;
14292;SDS011;62290;59.420;17.842;2024-03-07T07:23:00;6.80;;;2.05;;
14292;SDS011;62290;59.420;17.842;2024-03-07T07:25:30;4.82;;;1.80;;
14292;SDS011;62290;59.420;17.842;2024-03-07T07:27:58;6.45;;;2.35;;
14292;SDS011;62290;59.420;17.842;2024-03-07T07:30:26;3.13;;;1.70;;
14292;SDS011;62290;59.420;17.842;2024-03-07T07:32:54;2.88;;;1.63;;
14292;SDS011;62290;59.420;17.842;2024-03-07T07:35:22;2.33;;;1.60;;
14292;SDS011;62290;59.420;17.842;2024-03-07T07:37:51;2.33;;;1.60;;
14292;SDS011;62290;59.420;17.842;2024-03-07T07:40:23;3.22;;;1.67;;
14292;SDS011;62290;59.420;17.842;2024-03-07T07:42:54;2.67;;;1.70;;
14292;SDS011;62290;59.420;17.842;2024-03-07T07:45:22;3.97;;;2.15;;
14292;SDS011;62290;59.420;17.842;2024-03-07T07:47:52;2.60;;;1.35;;
14292;SDS011;62290;59.420;17.842;2024-03-07T07:50:21;3.58;;;1.65;;
14292;SDS011;62290;59.420;17.842;2024-03-07T07:52:51;7.93;;;1.85;;
14292;SDS011;62290;59.420;17.842;2024-03-07T07:55:20;2.38;;;1.50;;
14292;SDS011;62290;59.420;17.842;2024-03-07T07:57:51;2.13;;;1.50;;
14292;SDS011;62290;59.420;17.842;2024-03-07T08:00:21;2.45;;;1.52;;
14292;SDS011;62290;59.420;17.842;2024-03-07T08:02:50;4.03;;;1.40;;
14292;SDS011;62290;59.420;17.842;2024-03-07T08:05:20;3.25;;;1.60;;
14292;SDS011;62290;59.420;17.842;2024-03-07T08:07:49;3.30;;;1.75;;
14292;SDS011;62290;59.420;17.842;2024-03-07T08:10:18;2.67;;;1.63;;
14292;SDS011;62290;59.420;17.842;2024-03-07T08:12:47;3.28;;;1.35;;
14292;SDS011;62290;59.420;17.842;2024-03-07T08:15:16;3.63;;;1.50;;
14292;SDS011;62290;59.420;17.842;2024-03-07T08:17:45;2.53;;;1.27;;
14292;SDS011;62290;59.420;17.842;2024-03-07T08:20:14;2.80;;;1.50;;
14292;SDS011;62290;59.420;17.842;2024-03-07T08:22:45;2.03;;;1.33;;
14292;SDS011;62290;59.420;17.842;2024-03-07T08:25:13;1.52;;;1.40;;
14292;SDS011;62290;59.420;17.842;2024-03-07T08:27:43;3.22;;;1.60;;
14292;SDS011;62290;59.420;17.842;2024-03-07T08:30:12;2.38;;;1.80;;
14292;SDS011;62290;59.420;17.842;2024-03-07T08:32:45;2.13;;;1.50;;
14292;SDS011;62290;59.420;17.842;2024-03-07T08:35:13;3.53;;;1.33;;
14292;SDS011;62290;59.420;17.842;2024-03-07T08:37:43;3.63;;;1.40;;
14292;SDS011;62290;59.420;17.842;2024-03-07T08:40:12;2.80;;;1.55;;
14292;SDS011;62290;59.420;17.842;2024-03-07T08:42:46;3.05;;;1.23;;
14292;SDS011;62290;59.420;17.842;2024-03-07T08:45:14;1.48;;;1.10;;
14292;SDS011;62290;59.420;17.842;2024-03-07T08:47:47;2.75;;;1.75;;
14292;SDS011;62290;59.420;17.842;2024-03-07T08:50:16;5.57;;;1.52;;
14292;SDS011;62290;59.420;17.842;2024-03-07T08:52:46;4.10;;;1.58;;
14292;SDS011;62290;59.420;17.842;2024-03-07T08:55:18;3.38;;;1.20;;
14292;SDS011;62290;59.420;17.842;2024-03-07T08:57:47;2.42;;;1.25;;
14292;SDS011;62290;59.420;17.842;2024-03-07T09:00:16;2.50;;;1.67;;
14292;SDS011;62290;59.420;17.842;2024-03-07T09:02:53;1.63;;;1.33;;
14292;SDS011;62290;59.420;17.842;2024-03-07T09:05:25;3.88;;;1.35;;
14292;SDS011;62290;59.420;17.842;2024-03-07T09:07:55;2.03;;;1.15;;
14292;SDS011;62290;59.420;17.842;2024-03-07T09:10:23;2.35;;;1.20;;
14292;SDS011;62290;59.420;17.842;2024-03-07T09:12:52;1.83;;;1.27;;
14292;SDS011;62290;59.420;17.842;2024-03-07T09:15:21;3.08;;;1.30;;
14292;SDS011;62290;59.420;17.842;2024-03-07T09:17:50;2.35;;;1.20;;
14292;SDS011;62290;59.420;17.842;2024-03-07T09:20:21;1.88;;;1.33;;
14292;SDS011;62290;59.420;17.842;2024-03-07T09:22:50;6.35;;;1.45;;
14292;SDS011;62290;59.420;17.842;2024-03-07T09:25:21;1.27;;;1.10;;
14292;SDS011;62290;59.420;17.842;2024-03-07T09:27:51;2.58;;;1.10;;
14292;SDS011;62290;59.420;17.842;2024-03-07T09:30:19;1.88;;;1.20;;
14292;SDS011;62290;59.420;17.842;2024-03-07T09:32:51;1.48;;;1.02;;
14292;SDS011;62290;59.420;17.842;2024-03-07T09:35:23;3.63;;;1.30;;
14292;SDS011;62290;59.420;17.842;2024-03-07T09:37:51;4.93;;;1.52;;
14292;SDS011;62290;59.420;17.842;2024-03-07T09:40:20;2.63;;;1.40;;
14292;SDS011;62290;59.420;17.842;2024-03-07T09:42:54;4.85;;;1.48;;
14292;SDS011;62290;59.420;17.842;2024-03-07T09:45:28;1.05;;;0.90;;
14292;SDS011;62290;59.420;17.842;2024-03-07T09:47:58;2.25;;;1.52;;
14292;SDS011;62290;59.420;17.842;2024-03-07T09:50:28;3.10;;;1.40;;
14292;SDS011;62290;59.420;17.842;2024-03-07T09:52:58;2.88;;;1.55;;
14292;SDS011;62290;59.420;17.842;2024-03-07T09:55:27;4.22;;;1.50;;
14292;SDS011;62290;59.420;17.842;2024-03-07T09:57:56;2.25;;;1.02;;
14292;SDS011;62290;59.420;17.842;2024-03-07T10:00:28;2.22;;;1.30;;
14292;SDS011;62290;59.420;17.842;2024-03-07T10:02:58;1.42;;;1.20;;
14292;SDS011;62290;59.420;17.842;2024-03-07T10:05:30;4.05;;;0.90;;
14292;SDS011;62290;59.420;17.842;2024-03-07T10:07:59;2.55;;;1.10;;
14292;SDS011;62290;59.420;17.842;2024-03-07T10:10:28;3.47;;;1.20;;
14292;SDS011;62290;59.420;17.842;2024-03-07T10:12:58;5.07;;;1.50;;
14292;SDS011;62290;59.420;17.842;2024-03-07T10:15:27;1.27;;;0.90;;
14292;SDS011;62290;59.420;17.842;2024-03-07T10:17:59;7.22;;;1.35;;
14292;SDS011;62290;59.420;17.842;2024-03-07T10:20:28;1.35;;;0.90;;
14292;SDS011;62290;59.420;17.842;2024-03-07T10:22:58;1.38;;;1.00;;
14292;SDS011;62290;59.420;17.842;2024-03-07T10:25:27;1.38;;;0.88;;
14292;SDS011;62290;59.420;17.842;2024-03-07T10:27:56;5.68;;;1.38;;
14292;SDS011;62290;59.420;17.842;2024-03-07T10:30:25;1.45;;;1.00;;
14292;SDS011;62290;59.420;17.842;2024-03-07T10:32:55;5.40;;;1.83;;
14292;SDS011;62290;59.420;17.842;2024-03-07T10:35:26;2.65;;;1.10;;
14292;SDS011;62290;59.420;17.842;2024-03-07T10:37:57;2.10;;;1.00;;
14292;SDS011;62290;59.420;17.842;2024-03-07T10:40:27;9.82;;;2.10;;
14292;SDS011;62290;59.420;17.842;2024-03-07T10:42:57;1.67;;;1.10;;
14292;SDS011;62290;59.420;17.842;2024-03-07T10:45:29;2.40;;;0.95;;
14292;SDS011;62290;59.420;17.842;2024-03-07T10:48:01;1.85;;;0.93;;
14292;SDS011;62290;59.420;17.842;2024-03-07T10:50:38;2.55;;;0.90;;
14292;SDS011;62290;59.420;17.842;2024-03-07T10:53:18;1.50;;;1.05;;
14292;SDS011;62290;59.420;17.842;2024-03-07T10:55:57;4.43;;;1.30;;
14292;SDS011;62290;59.420;17.842;2024-03-07T10:58:47;3.92;;;1.38;;
14292;SDS011;62290;59.420;17.842;2024-03-07T11:01:23;4.18;;;1.40;;
14292;SDS011;62290;59.420;17.842;2024-03-07T11:03:53;2.92;;;1.23;;
14292;SDS011;62290;59.420;17.842;2024-03-07T11:06:24;5.07;;;1.00;;
14292;SDS011;62290;59.420;17.842;2024-03-07T11:08:54;2.33;;;1.10;;
14292;SDS011;62290;59.420;17.842;2024-03-07T11:11:23;5.22;;;1.10;;
14292;SDS011;62290;59.420;17.842;2024-03-07T11:13:52;2.30;;;1.23;;
14292;SDS011;62290;59.420;17.842;2024-03-07T11:16:21;1.80;;;1.05;;
14292;SDS011;62290;59.420;17.842;2024-03-07T11:21:47;1.75;;;1.10;;
14292;SDS011;62290;59.420;17.842;2024-03-07T11:24:27;3.53;;;1.35;;
14292;SDS011;62290;59.420;17.842;2024-03-07T11:26:57;2.65;;;1.25;;
14292;SDS011;62290;59.420;17.842;2024-03-07T11:32:20;6.88;;;1.00;;
14292;SDS011;62290;59.420;17.842;2024-03-07T11:34:50;1.90;;;1.20;;
14292;SDS011;62290;59.420;17.842;2024-03-07T11:40:12;1.45;;;1.10;;
14292;SDS011;62290;59.420;17.842;2024-03-07T11:42:46;2.63;;;1.23;;
14292;SDS011;62290;59.420;17.842;2024-03-07T11:45:15;4.97;;;1.25;;
14292;SDS011;62290;59.420;17.842;2024-03-07T11:47:51;1.52;;;0.90;;
14292;SDS011;62290;59.420;17.842;2024-03-07T11:50:26;5.30;;;1.77;;
14292;SDS011;62290;59.420;17.842;2024-03-07T11:52:55;1.52;;;1.17;;
14292;SDS011;62290;59.420;17.842;2024-03-07T11:55:25;1.23;;;1.00;;
14292;SDS011;62290;59.420;17.842;2024-03-07T11:57:55;6.47;;;1.30;;
14292;SDS011;62290;59.420;17.842;2024-03-07T12:00:23;2.72;;;1.08;;
14292;SDS011;62290;59.420;17.842;2024-03-07T12:03:01;7.85;;;1.30;;
14292;SDS011;62290;59.420;17.842;2024-03-07T12:05:33;6.97;;;1.08;;
14292;SDS011;62290;59.420;17.842;2024-03-07T12:08:02;1.90;;;1.08;;
14292;SDS011;62290;59.420;17.842;2024-03-07T12:10:33;3.42;;;1.13;;
14292;SDS011;62290;59.420;17.842;2024-03-07T12:13:03;2.35;;;1.00;;
14292;SDS011;62290;59.420;17.842;2024-03-07T12:15:31;1.80;;;1.02;;
14292;SDS011;62290;59.420;17.842;2024-03-07T12:18:01;2.45;;;1.20;;
14292;SDS011;62290;59.420;17.842;2024-03-07T12:20:36;2.80;;;1.10;;
14292;SDS011;62290;59.420;17.842;2024-03-07T12:23:05;4.35;;;1.13;;
14292;SDS011;62290;59.420;17.842;2024-03-07T12:25:36;2.60;;;1.02;;
14292;SDS011;62290;59.420;17.842;2024-03-07T12:28:05;1.88;;;0.90;;
14292;SDS011;62290;59.420;17.842;2024-03-07T12:30:47;5.30;;;1.20;;
14292;SDS011;62290;59.420;17.842;2024-03-07T12:33:17;4.07;;;1.08;;
14292;SDS011;62290;59.420;17.842;2024-03-07T12:35:46;1.38;;;1.10;;
14292;SDS011;62290;59.420;17.842;2024-03-07T12:38:16;2.70;;;1.10;;
14292;SDS011;62290;59.420;17.842;2024-03-07T12:40:46;1.50;;;1.08;;
14292;SDS011;62290;59.420;17.842;2024-03-07T12:43:14;5.18;;;0.75;;
14292;SDS011;62290;59.420;17.842;2024-03-07T12:45:44;3.30;;;1.00;;
14292;SDS011;62290;59.420;17.842;2024-03-07T12:48:15;1.38;;;0.88;;
14292;SDS011;62290;59.420;17.842;2024-03-07T12:50:45;3.08;;;1.05;;
14292;SDS011;62290;59.420;17.842;2024-03-07T12:53:17;1.77;;;1.17;;
14292;SDS011;62290;59.420;17.842;2024-03-07T12:55:46;1.45;;;1.15;;
14292;SDS011;62290;59.420;17.842;2024-03-07T12:58:14;1.20;;;1.10;;
14292;SDS011;62290;59.420;17.842;2024-03-07T13:00:43;1.10;;;1.00;;
14292;SDS011;62290;59.420;17.842;2024-03-07T13:03:11;4.47;;;1.45;;
14292;SDS011;62290;59.420;17.842;2024-03-07T13:05:41;1.85;;;0.98;;
14292;SDS011;62290;59.420;17.842;2024-03-07T13:08:09;4.60;;;0.85;;
14292;SDS011;62290;59.420;17.842;2024-03-07T13:10:39;2.90;;;1.20;;
14292;SDS011;62290;59.420;17.842;2024-03-07T13:13:09;1.60;;;1.20;;
14292;SDS011;62290;59.420;17.842;2024-03-07T13:15:37;1.10;;;1.00;;
14292;SDS011;62290;59.420;17.842;2024-03-07T13:18:06;1.65;;;0.90;;
14292;SDS011;62290;59.420;17.842;2024-03-07T13:20:35;2.28;;;0.80;;
14292;SDS011;62290;59.420;17.842;2024-03-07T13:23:03;1.23;;;0.85;;
14292;SDS011;62290;59.420;17.842;2024-03-07T13:25:32;2.85;;;1.08;;
14292;SDS011;62290;59.420;17.842;2024-03-07T13:28:01;2.47;;;0.82;;
14292;SDS011;62290;59.420;17.842;2024-03-07T13:30:35;2.38;;;1.02;;
14292;SDS011;62290;59.420;17.842;2024-03-07T13:33:03;1.17;;;0.93;;
14292;SDS011;62290;59.420;17.842;2024-03-07T13:35:32;3.40;;;1.13;;
14292;SDS011;62290;59.420;17.842;2024-03-07T13:38:00;1.63;;;1.00;;
14292;SDS011;62290;59.420;17.842;2024-03-07T13:40:28;4.90;;;0.98;;
14292;SDS011;62290;59.420;17.842;2024-03-07T13:42:57;3.60;;;0.98;;
14292;SDS011;62290;59.420;17.842;2024-03-07T13:45:26;1.55;;;1.02;;
14292;SDS011;62290;59.420;17.842;2024-03-07T13:47:59;9.43;;;1.02;;
14292;SDS011;62290;59.420;17.842;2024-03-07T13:50:27;10.45;;;0.90;;
14292;SDS011;62290;59.420;17.842;2024-03-07T13:53:18;2.05;;;1.02;;
14292;SDS011;62290;59.420;17.842;2024-03-07T13:56:01;1.85;;;1.13;;
14292;SDS011;62290;59.420;17.842;2024-03-07T13:59:00;3.92;;;1.38;;
14292;SDS011;62290;59.420;17.842;2024-03-07T14:01:56;1.92;;;1.27;;
14292;SDS011;62290;59.420;17.842;2024-03-07T14:07:37;16.80;;;1.50;;
14292;SDS011;62290;59.420;17.842;2024-03-07T14:10:27;7.97;;;1.25;;
14292;SDS011;62290;59.420;17.842;2024-03-07T14:13:24;7.30;;;1.20;;
14292;SDS011;62290;59.420;17.842;2024-03-07T14:19:28;5.05;;;1.20;;
14292;SDS011;62290;59.420;17.842;2024-03-07T14:22:17;8.45;;;1.20;;
14292;SDS011;62290;59.420;17.842;2024-03-07T14:25:23;7.88;;;1.85;;
14292;SDS011;62290;59.420;17.842;2024-03-07T14:28:17;2.10;;;0.80;;
14292;SDS011;62290;59.420;17.842;2024-03-07T14:31:02;7.55;;;1.45;;
14292;SDS011;62290;59.420;17.842;2024-03-07T14:33:47;2.85;;;1.30;;
14292;SDS011;62290;59.420;17.842;2024-03-07T14:36:17;3.25;;;0.85;;
14292;SDS011;62290;59.420;17.842;2024-03-07T14:38:47;5.82;;;1.10;;
14292;SDS011;62290;59.420;17.842;2024-03-07T14:41:19;1.20;;;1.10;;
14292;SDS011;62290;59.420;17.842;2024-03-07T14:43:52;3.15;;;0.90;;
14292;SDS011;62290;59.420;17.842;2024-03-07T14:46:20;2.42;;;1.10;;
14292;SDS011;62290;59.420;17.842;2024-03-07T14:48:48;2.47;;;1.42;;
14292;SDS011;62290;59.420;17.842;2024-03-07T14:51:16;3.80;;;1.05;;
14292;SDS011;62290;59.420;17.842;2024-03-07T14:53:44;3.67;;;1.08;;
14292;SDS011;62290;59.420;17.842;2024-03-07T14:56:12;3.00;;;1.00;;
14292;SDS011;62290;59.420;17.842;2024-03-07T14:58:42;6.95;;;1.20;;
14292;SDS011;62290;59.420;17.842;2024-03-07T15:01:10;5.88;;;0.90;;
14292;SDS011;62290;59.420;17.842;2024-03-07T15:03:38;7.97;;;1.20;;
14292;SDS011;62290;59.420;17.842;2024-03-07T15:06:11;4.70;;;1.00;;